Time;durP1;ratioP1;P1;durP2;ratioP2;P2;SDS_P1;SDS_P2;PMS_P1;PMS_P2;Temp;Humidity;BMP_temperature;BMP_pressure;BME280_temperature;BME280_humidity;BME280_pressure;Samples;Min_cycle;Max_cycle;Signal;HPM_P1;HPM_P2
2023/08/08 00:01:30;;;;;;;0.80;0.80;;;;;;;25.34;44.82;97609.41;5046570;28;20578;-27
2023/08/08 00:03:57;;;;;;;1.00;1.00;;;;;;;25.34;44.00;97604.25;5053411;28;20576;-27
2023/08/08 00:06:23;;;;;;;1.00;1.00;;;;;;;25.31;44.30;97600.75;5030329;28;20256;-27
2023/08/08 00:08:50;;;;;;;0.70;0.70;;;;;;;25.34;44.19;97599.09;5048760;28;20263;-27
2023/08/08 00:11:16;;;;;;;1.07;0.97;;;;;;;25.33;44.78;97605.09;5049292;28;20228;-27
2023/08/08 00:13:43;;;;;;;0.93;0.93;;;;;;;25.34;44.37;97606.81;5049971;28;20258;-27
2023/08/08 00:16:09;;;;;;;1.20;1.10;;;;;;;25.34;44.15;97601.66;5053222;28;20220;-27
2023/08/08 00:18:36;;;;;;;1.27;1.17;;;;;;;25.34;44.13;97604.25;5049154;28;20213;-27
2023/08/08 00:21:03;;;;;;;1.10;1.10;;;;;;;25.33;44.67;97606.78;5053689;28;20227;-27
2023/08/08 00:23:30;;;;;;;1.07;1.03;;;;;;;25.34;44.15;97606.81;5048276;28;20256;-27
2023/08/08 00:25:56;;;;;;;1.10;1.00;;;;;;;25.33;44.40;97599.94;5046496;28;20260;-27
2023/08/08 00:28:23;;;;;;;1.10;1.00;;;;;;;25.32;44.22;97594.75;5053174;28;20201;-27
2023/08/08 00:30:50;;;;;;;1.13;1.03;;;;;;;25.34;44.46;97605.97;5039256;28;20697;-28
2023/08/08 00:33:16;;;;;;;1.00;1.00;;;;;;;25.33;44.14;97601.66;5045212;28;20233;-27
2023/08/08 00:35:44;;;;;;;1.00;1.00;;;;;;;25.32;44.45;97595.66;5054135;28;20204;-27
2023/08/08 00:38:11;;;;;;;1.10;1.00;;;;;;;25.33;44.27;97599.94;5053535;28;20201;-27
2023/08/08 00:40:37;;;;;;;0.90;0.90;;;;;;;25.28;44.48;97587.84;5046028;28;20615;-27
2023/08/08 00:43:04;;;;;;;0.90;0.90;;;;;;;25.34;43.64;97599.09;5048183;28;20259;-27
2023/08/08 00:45:30;;;;;;;0.90;0.90;;;;;;;25.33;44.17;97597.38;5053496;28;20201;-27
2023/08/08 00:47:57;;;;;;;1.47;1.10;;;;;;;25.32;44.52;97593.09;5081806;22;20216;-23
2023/08/08 00:50:24;;;;;;;0.90;0.90;;;;;;;25.33;44.72;97588.78;5072980;28;20207;-23
2023/08/08 00:52:50;;;;;;;0.90;0.90;;;;;;;25.34;43.65;97590.53;5071705;28;20693;-25
2023/08/08 00:55:17;;;;;;;0.90;0.90;;;;;;;25.33;44.38;97593.94;5071927;28;20214;-23
2023/08/08 00:57:43;;;;;;;1.00;1.00;;;;;;;25.34;44.52;97585.41;5082930;28;20222;-23
2023/08/08 01:00:11;;;;;;;0.80;0.80;;;;;;;25.33;44.64;97581.94;5104589;28;20242;-23
2023/08/08 01:02:38;;;;;;;0.90;0.90;;;;;;;25.34;44.08;97582.81;5088537;28;20200;-26
2023/08/08 01:05:05;;;;;;;0.80;0.80;;;;;;;25.33;43.89;97579.38;5085923;28;20252;-23
2023/08/08 01:07:47;;;;;;;0.87;0.87;;;;;;;25.33;44.66;97574.22;5091214;28;20269;-25
2023/08/08 01:10:21;;;;;;;0.97;0.97;;;;;;;25.34;44.58;97580.25;5053296;28;20196;-29
2023/08/08 01:13:00;;;;;;;1.00;1.00;;;;;;;25.32;44.00;97575.09;5072577;28;20207;-24
2023/08/08 01:15:27;;;;;;;0.87;0.87;;;;;;;25.33;44.26;97581.06;5075500;28;20285;-23
2023/08/08 01:17:53;;;;;;;0.73;0.73;;;;;;;25.32;44.37;97580.22;5091075;28;20227;-23
2023/08/08 01:20:22;;;;;;;1.00;1.00;;;;;;;25.33;44.35;97584.53;5079655;28;20212;-29
2023/08/08 01:22:56;;;;;;;2.37;1.10;;;;;;;25.33;44.21;97581.06;5089636;28;20206;-23
2023/08/08 01:25:23;;;;;;;0.90;0.90;;;;;;;25.33;44.11;97581.06;5087376;28;20207;-23
2023/08/08 01:27:50;;;;;;;1.10;1.10;;;;;;;25.31;44.46;97581.00;5080584;28;20273;-23
2023/08/08 01:30:16;;;;;;;0.90;0.90;;;;;;;25.30;44.38;97578.41;5084982;28;20639;-23
2023/08/08 01:32:43;;;;;;;1.00;0.90;;;;;;;25.33;44.16;97584.53;5087777;28;20286;-23
2023/08/08 01:35:09;;;;;;;0.80;0.80;;;;;;;25.27;44.51;97565.50;5090675;28;20199;-23
2023/08/08 01:37:39;;;;;;;0.90;0.90;;;;;;;25.33;44.69;97578.50;5086515;28;20254;-23
2023/08/08 01:40:06;;;;;;;1.13;1.07;;;;;;;25.28;43.90;97568.09;5087695;28;20662;-23
2023/08/08 01:42:33;;;;;;;0.90;0.90;;;;;;;25.32;43.96;97572.50;5101426;28;20265;-28
2023/08/08 01:44:59;;;;;;;0.80;0.80;;;;;;;25.32;44.29;97569.94;5090438;28;20211;-23
2023/08/08 01:47:26;;;;;;;0.90;0.90;;;;;;;25.34;44.16;97569.97;5088086;28;20284;-23
2023/08/08 01:49:52;;;;;;;1.27;1.17;;;;;;;25.33;44.06;97569.09;5086169;28;20232;-23
2023/08/08 01:52:19;;;;;;;0.90;0.90;;;;;;;25.34;44.18;97567.38;5088057;28;20231;-28
2023/08/08 01:54:46;;;;;;;0.90;0.90;;;;;;;25.33;44.65;97573.34;5078172;28;20262;-24
2023/08/08 01:57:12;;;;;;;0.90;0.90;;;;;;;25.34;43.84;97567.38;5092043;28;20307;-23
2023/08/08 01:59:39;;;;;;;0.90;0.90;;;;;;;25.35;44.17;97572.56;5092149;28;20496;-23
2023/08/08 02:02:06;;;;;;;0.80;0.80;;;;;;;25.34;44.56;97568.22;5086414;28;20382;-23
2023/08/08 02:04:33;;;;;;;1.00;1.00;;;;;;;25.35;44.48;97572.56;5091902;28;20200;-28
2023/08/08 02:06:59;;;;;;;0.90;0.90;;;;;;;25.35;44.05;97569.97;5090975;28;20223;-23
2023/08/08 02:09:26;;;;;;;1.00;1.00;;;;;;;25.34;43.97;97570.78;5083807;28;20199;-23
2023/08/08 02:11:53;;;;;;;0.90;0.90;;;;;;;25.34;44.59;97564.81;5083181;28;20204;-23
2023/08/08 02:14:20;;;;;;;0.80;0.80;;;;;;;25.35;44.41;97566.53;5084151;28;20224;-32
2023/08/08 02:16:46;;;;;;;1.00;1.00;;;;;;;25.35;43.97;97567.41;5087021;28;20280;-24
2023/08/08 02:19:14;;;;;;;0.90;0.90;;;;;;;25.36;44.36;97568.25;5080508;28;20303;-25
2023/08/08 02:21:41;;;;;;;0.77;0.77;;;;;;;25.35;44.25;97566.53;5079413;28;20231;-23
2023/08/08 02:24:08;;;;;;;0.70;0.70;;;;;;;25.36;44.18;97556.25;5085301;28;20211;-23
2023/08/08 02:26:34;;;;;;;0.90;0.90;;;;;;;25.35;43.75;97562.25;5077751;28;20223;-23
2023/08/08 02:29:01;;;;;;;1.00;1.00;;;;;;;25.35;43.93;97558.81;5074949;28;20239;-24
2023/08/08 02:31:28;;;;;;;0.90;0.90;;;;;;;25.34;44.50;97557.09;5083479;28;20263;-23
2023/08/08 02:33:54;;;;;;;0.90;0.90;;;;;;;25.32;44.86;97559.66;5083560;28;20200;-23
2023/08/08 02:36:21;;;;;;;1.00;1.00;;;;;;;25.35;43.64;97558.81;5078749;28;20207;-26
2023/08/08 02:38:49;;;;;;;1.07;1.00;;;;;;;25.29;43.66;97553.53;5084957;28;20699;-23
2023/08/08 02:41:16;;;;;;;0.80;0.80;;;;;;;25.34;43.94;97557.09;5083143;28;20200;-23
2023/08/08 02:43:43;;;;;;;0.70;0.70;;;;;;;25.34;44.52;97557.09;5089453;28;20209;-23
2023/08/08 02:46:09;;;;;;;0.90;0.90;;;;;;;25.35;43.78;97564.84;5090813;28;20260;-37
2023/08/08 02:48:36;;;;;;;1.00;1.00;;;;;;;25.34;43.75;97560.50;5087823;28;20736;-25
2023/08/08 02:51:02;;;;;;;0.90;0.90;;;;;;;25.34;43.95;97557.94;5081919;28;20204;-23
2023/08/08 02:53:29;;;;;;;0.90;0.90;;;;;;;25.34;44.56;97559.66;5086968;28;20203;-23
2023/08/08 02:55:56;;;;;;;1.27;0.90;;;;;;;25.34;43.72;97565.66;5080694;28;20257;-28
2023/08/08 02:58:22;;;;;;;0.90;0.90;;;;;;;25.33;44.18;97565.63;5088004;28;20262;-26
2023/08/08 03:00:49;;;;;;;1.27;0.73;;;;;;;25.32;44.45;97564.78;5090404;28;20247;-23
2023/08/08 03:03:15;;;;;;;1.00;1.00;;;;;;;25.33;44.62;97561.34;5081573;28;20200;-23
2023/08/08 03:05:43;;;;;;;1.00;1.00;;;;;;;25.34;44.02;97564.81;5088560;28;20282;-23
2023/08/08 03:08:10;;;;;;;0.97;0.97;;;;;;;25.33;44.27;97573.34;5084937;28;20435;-23
2023/08/08 03:10:37;;;;;;;0.97;0.97;;;;;;;25.33;44.17;97573.34;5089192;28;20199;-27
2023/08/08 03:13:03;;;;;;;0.90;0.90;;;;;;;25.32;44.42;97562.22;5088695;28;20253;-37
2023/08/08 03:15:30;;;;;;;0.87;0.87;;;;;;;25.33;43.57;97560.47;5085853;28;20228;-23
2023/08/08 03:17:57;;;;;;;0.80;0.80;;;;;;;25.32;44.01;97561.31;5085917;28;20223;-23
2023/08/08 03:20:24;;;;;;;0.80;0.80;;;;;;;25.32;44.39;97561.31;5083812;28;20256;-26
2023/08/08 03:22:51;;;;;;;0.93;0.93;;;;;;;25.32;44.47;97556.16;5087314;28;20364;-23
2023/08/08 03:25:17;;;;;;;0.87;0.87;;;;;;;25.33;43.98;97557.91;5073874;28;20204;-28
2023/08/08 03:27:44;;;;;;;2.73;0.90;;;;;;;25.32;44.23;97553.59;5085928;28;20220;-23
2023/08/08 03:30:11;;;;;;;0.80;0.80;;;;;;;25.32;43.98;97553.59;5089090;28;20246;-23
2023/08/08 03:32:38;;;;;;;0.80;0.80;;;;;;;25.34;43.98;97559.66;5085129;28;20236;-28
2023/08/08 03:35:06;;;;;;;0.80;0.80;;;;;;;25.33;43.71;97555.34;5088685;28;20207;-23
2023/08/08 03:37:32;;;;;;;0.80;0.80;;;;;;;25.34;44.12;97557.09;5079397;28;20231;-23
2023/08/08 03:39:59;;;;;;;0.80;0.80;;;;;;;25.32;44.32;97557.06;5089858;28;20272;-23
2023/08/08 03:42:25;;;;;;;0.90;0.90;;;;;;;25.34;44.09;97554.53;5085740;28;20309;-23
2023/08/08 03:44:52;;;;;;;0.97;0.97;;;;;;;25.33;43.78;97553.66;5078616;28;20204;-32
2023/08/08 03:47:18;;;;;;;0.90;0.90;;;;;;;25.33;43.93;97555.34;5083660;28;20232;-23
2023/08/08 03:49:45;;;;;;;0.80;0.80;;;;;;;25.33;44.33;97555.34;5087839;28;20669;-23
2023/08/08 03:52:12;;;;;;;0.80;0.80;;;;;;;25.34;44.01;97550.22;5087421;28;20258;-32
2023/08/08 03:54:39;;;;;;;0.90;0.90;;;;;;;25.33;44.08;97561.34;5083650;28;20200;-23
2023/08/08 03:57:06;;;;;;;0.80;0.80;;;;;;;25.33;44.25;97560.47;5078689;28;20309;-29
2023/08/08 03:59:33;;;;;;;0.90;0.90;;;;;;;25.32;44.07;97561.31;5078763;28;20219;-23
2023/08/08 04:01:59;;;;;;;0.90;0.90;;;;;;;25.34;43.85;97562.25;5085391;28;20196;-23
2023/08/08 04:04:27;;;;;;;0.80;0.80;;;;;;;25.33;44.01;97563.94;5083575;28;20675;-33
2023/08/08 04:06:53;;;;;;;0.70;0.70;;;;;;;25.32;44.37;97564.78;5093878;28;20254;-23
2023/08/08 04:09:20;;;;;;;0.90;0.90;;;;;;;25.34;44.14;97567.38;5079957;28;20203;-24
2023/08/08 04:11:47;;;;;;;0.90;0.90;;;;;;;25.33;43.62;97563.94;5085545;28;20215;-39
2023/08/08 04:14:13;;;;;;;0.80;0.80;;;;;;;25.33;44.09;97571.66;5082469;28;20191;-28
2023/08/08 04:16:40;;;;;;;0.70;0.70;;;;;;;25.34;44.06;97572.53;5080801;28;20629;-23
2023/08/08 04:19:07;;;;;;;0.80;0.80;;;;;;;25.34;43.97;97569.97;5083317;28;20731;-23
2023/08/08 04:21:33;;;;;;;0.90;0.90;;;;;;;25.34;43.71;97570.78;5089393;28;20192;-23
2023/08/08 04:24:00;;;;;;;0.87;0.87;;;;;;;25.33;43.90;97563.94;5083897;28;20196;-27
2023/08/08 04:26:26;;;;;;;0.90;0.90;;;;;;;25.33;44.40;97566.50;5082822;28;20200;-23
2023/08/08 04:28:53;;;;;;;0.90;0.90;;;;;;;25.35;43.64;97571.69;5089641;28;20264;-23
2023/08/08 04:31:20;;;;;;;1.10;0.93;;;;;;;25.35;43.73;97574.25;5085108;28;20192;-23
2023/08/08 04:33:46;;;;;;;0.80;0.80;;;;;;;25.34;44.08;97567.38;5081012;28;20200;-24
2023/08/08 04:36:13;;;;;;;0.90;0.90;;;;;;;25.33;44.10;97563.94;5082793;28;20202;-24
2023/08/08 04:38:39;;;;;;;1.03;1.00;;;;;;;25.35;43.40;97566.53;5082259;28;20196;-23
2023/08/08 04:41:06;;;;;;;0.70;0.70;;;;;;;25.32;43.75;97574.16;5090524;28;20713;-23
2023/08/08 04:43:33;;;;;;;0.77;0.77;;;;;;;25.35;44.21;97566.53;5090938;28;20205;-28
2023/08/08 04:45:59;;;;;;;0.90;0.90;;;;;;;25.34;44.43;97569.97;5087812;28;20200;-23
2023/08/08 04:48:26;;;;;;;0.80;0.80;;;;;;;25.33;43.22;97574.22;5085809;28;20271;-23
2023/08/08 04:50:52;;;;;;;0.90;0.90;;;;;;;25.35;43.91;97567.41;5081822;28;20224;-23
2023/08/08 04:53:19;;;;;;;0.80;0.80;;;;;;;25.34;43.80;97565.66;5082050;28;20212;-28
2023/08/08 04:55:46;;;;;;;0.80;0.80;;;;;;;25.34;44.17;97570.78;5075227;28;20208;-28
2023/08/08 04:58:12;;;;;;;0.90;0.90;;;;;;;25.35;43.60;97566.53;5080783;28;20219;-23
2023/08/08 05:00:39;;;;;;;1.20;1.10;;;;;;;25.34;43.85;97565.66;5090780;28;20266;-23
2023/08/08 05:03:05;;;;;;;1.23;1.13;;;;;;;25.34;44.49;97562.25;5084683;28;20622;-23
2023/08/08 05:05:32;;;;;;;1.10;1.00;;;;;;;25.34;44.47;97568.22;5087249;28;20199;-23
2023/08/08 05:08:00;;;;;;;1.30;1.00;;;;;;;25.36;43.66;97571.69;5081246;28;20247;-23
2023/08/08 05:10:26;;;;;;;1.13;1.00;;;;;;;25.37;43.72;97567.44;5089290;28;20207;-24
2023/08/08 05:12:53;;;;;;;1.70;1.00;;;;;;;25.36;44.30;97569.13;5086636;28;20686;-23
2023/08/08 05:15:20;;;;;;;1.00;1.00;;;;;;;25.35;44.10;97566.53;5089073;28;20195;-23
2023/08/08 05:17:46;;;;;;;1.90;1.10;;;;;;;25.36;43.21;97569.13;5092211;28;20219;-23
2023/08/08 05:20:13;;;;;;;1.13;1.10;;;;;;;25.36;43.92;97570.81;5087508;28;20230;-23
2023/08/08 05:22:39;;;;;;;1.90;1.20;;;;;;;25.36;43.69;97571.69;5090460;28;20200;-24
2023/08/08 05:25:06;;;;;;;1.30;1.20;;;;;;;25.36;43.68;97563.97;5085708;28;20203;-30
2023/08/08 05:27:34;;;;;;;1.20;1.10;;;;;;;25.37;43.22;97568.28;5081809;28;20660;-23
2023/08/08 05:30:01;;;;;;;1.40;1.30;;;;;;;25.37;43.69;97572.56;5092499;28;20206;-23
2023/08/08 05:32:27;;;;;;;1.30;1.20;;;;;;;25.29;43.65;97559.56;5091325;28;20673;-23
2023/08/08 05:34:56;;;;;;;1.20;1.20;;;;;;;25.38;43.93;97576.88;5090488;28;20204;-23
2023/08/08 05:37:24;;;;;;;2.80;1.17;;;;;;;25.37;43.27;97580.28;5092324;28;20694;-23
2023/08/08 05:39:50;;;;;;;0.90;0.90;;;;;;;25.37;43.70;97570.84;5091835;28;20704;-23
2023/08/08 05:42:17;;;;;;;1.00;1.00;;;;;;;25.36;44.05;97568.25;5085432;28;20199;-23
2023/08/08 05:44:44;;;;;;;1.30;1.20;;;;;;;25.37;43.28;97570.84;5086129;28;20294;-23
2023/08/08 05:47:10;;;;;;;1.10;1.10;;;;;;;25.36;43.44;97563.97;5084251;28;20320;-23
2023/08/08 05:49:38;;;;;;;0.90;0.90;;;;;;;25.30;43.56;97562.97;5090136;28;20203;-23
2023/08/08 05:52:06;;;;;;;1.20;1.10;;;;;;;25.36;44.11;97566.56;5078403;28;20584;-23
2023/08/08 05:54:32;;;;;;;0.93;0.93;;;;;;;25.37;43.51;97565.69;5082792;28;20290;-23
2023/08/08 05:56:59;;;;;;;1.07;0.97;;;;;;;25.36;43.63;97561.41;5090324;28;20219;-23
2023/08/08 05:59:26;;;;;;;1.33;1.10;;;;;;;25.36;43.63;97565.69;5088231;28;20192;-28
2023/08/08 06:01:52;;;;;;;1.17;1.07;;;;;;;25.37;43.92;97572.56;5090830;28;20199;-27
2023/08/08 06:04:19;;;;;;;0.90;0.90;;;;;;;25.37;43.37;97570.00;5078382;28;20254;-23
2023/08/08 06:06:48;;;;;;;0.93;0.93;;;;;;;25.37;43.50;97575.16;5081024;28;20219;-23
2023/08/08 06:09:15;;;;;;;1.17;1.13;;;;;;;25.35;44.11;97577.69;5080952;28;20761;-23
2023/08/08 06:11:42;;;;;;;1.00;1.00;;;;;;;25.37;43.31;97573.41;5082898;28;20199;-23
2023/08/08 06:14:09;;;;;;;2.43;1.20;;;;;;;25.36;43.79;97574.28;5085141;28;20196;-30
2023/08/08 06:16:35;;;;;;;1.23;1.13;;;;;;;25.36;43.96;97582.00;5077332;28;20310;-23
2023/08/08 06:19:03;;;;;;;1.37;1.03;;;;;;;25.35;43.96;97575.13;5086703;28;20204;-24
2023/08/08 06:21:29;;;;;;;1.00;1.00;;;;;;;25.36;43.37;97576.84;5087963;28;20269;-24
2023/08/08 06:23:56;;;;;;;0.80;0.80;;;;;;;25.36;42.92;97571.69;5083803;28;20200;-23
2023/08/08 06:26:23;;;;;;;1.10;1.00;;;;;;;25.36;43.77;97574.28;5086460;28;20213;-23
2023/08/08 06:28:51;;;;;;;1.17;1.10;;;;;;;25.35;43.42;97574.25;5078596;28;20287;-23
2023/08/08 06:31:18;;;;;;;1.13;1.03;;;;;;;25.36;43.28;97565.69;5088475;28;20223;-23
2023/08/08 06:33:45;;;;;;;1.17;1.10;;;;;;;25.37;42.87;97567.44;5082562;28;20688;-32
2023/08/08 06:36:12;;;;;;;1.07;0.97;;;;;;;25.35;43.52;97569.09;5086111;28;20553;-23
2023/08/08 06:38:38;;;;;;;1.07;1.00;;;;;;;25.36;43.43;97565.69;5086645;28;20230;-24
2023/08/08 06:41:05;;;;;;;1.03;1.03;;;;;;;25.36;42.32;97566.56;5084767;28;20565;-23
2023/08/08 06:43:31;;;;;;;0.97;0.97;;;;;;;25.35;43.64;97567.41;5086571;28;20204;-23
2023/08/08 06:45:58;;;;;;;0.90;0.90;;;;;;;25.36;43.81;97568.25;5091437;28;20199;-23
2023/08/08 06:48:25;;;;;;;0.90;0.90;;;;;;;25.35;43.89;97559.69;5091219;28;20723;-23
2023/08/08 06:50:51;;;;;;;1.00;1.00;;;;;;;25.35;42.83;97569.97;5090004;28;20195;-23
2023/08/08 06:53:18;;;;;;;1.20;1.10;;;;;;;25.35;43.58;97564.84;5077903;28;20260;-30
2023/08/08 06:55:45;;;;;;;1.00;0.90;;;;;;;25.33;43.69;97561.34;5085937;28;20203;-23
2023/08/08 06:58:11;;;;;;;1.20;1.10;;;;;;;25.34;43.28;97554.53;5088965;28;20215;-23
2023/08/08 07:00:38;;;;;;;0.90;0.90;;;;;;;25.34;43.07;97557.94;5083600;28;20216;-24
2023/08/08 07:03:05;;;;;;;0.90;0.90;;;;;;;25.33;43.71;97561.34;5091512;28;20223;-38
2023/08/08 07:05:31;;;;;;;1.20;1.10;;;;;;;25.33;43.69;97558.78;5090570;28;20199;-24
2023/08/08 07:07:58;;;;;;;1.20;1.10;;;;;;;25.35;43.21;97562.25;5074243;28;20301;-24
2023/08/08 07:10:25;;;;;;;1.10;1.00;;;;;;;25.34;43.49;97546.81;5081830;28;20192;-28
2023/08/08 07:12:51;;;;;;;0.90;0.90;;;;;;;25.34;43.54;97551.94;5088818;28;20249;-25
2023/08/08 07:15:18;;;;;;;2.10;0.80;;;;;;;25.34;43.41;97544.22;5079961;28;20197;-24
2023/08/08 07:17:44;;;;;;;1.23;1.10;;;;;;;25.34;43.15;97547.66;5085819;28;20280;-23
2023/08/08 07:20:13;;;;;;;0.93;0.90;;;;;;;25.33;43.67;97548.50;5088815;28;20216;-24
2023/08/08 07:22:40;;;;;;;0.90;0.90;;;;;;;25.33;43.82;97538.22;5082403;28;20204;-23
2023/08/08 07:25:07;;;;;;;1.13;1.03;;;;;;;25.34;43.16;97541.66;5084449;28;20633;-24
2023/08/08 07:27:33;;;;;;;0.90;0.90;;;;;;;25.34;43.15;97545.06;5090049;28;20219;-44
2023/08/08 07:30:01;;;;;;;1.00;1.00;;;;;;;25.34;43.85;97539.09;5085674;28;20205;-26
2023/08/08 07:32:27;;;;;;;0.90;0.90;;;;;;;25.35;43.57;97535.66;5088886;28;20200;-23
2023/08/08 07:34:56;;;;;;;0.80;0.80;;;;;;;25.35;43.32;97543.38;5091567;28;20192;-24
2023/08/08 07:37:23;;;;;;;0.93;0.90;;;;;;;25.34;43.39;97537.34;5094621;28;20243;-23
2023/08/08 07:39:51;;;;;;;0.97;0.97;;;;;;;25.33;43.63;97527.91;5085568;28;20195;-23
2023/08/08 07:42:17;;;;;;;0.97;0.97;;;;;;;25.35;43.54;97530.50;5081094;28;20303;-24
2023/08/08 07:44:44;;;;;;;0.90;0.90;;;;;;;25.33;42.99;97530.50;5088069;28;20199;-23
2023/08/08 07:47:10;;;;;;;1.10;1.03;;;;;;;25.32;43.17;97528.78;5086432;28;20311;-28
2023/08/08 07:49:39;;;;;;;0.90;0.90;;;;;;;25.31;43.71;97526.97;5085196;28;20206;-26
2023/08/08 07:52:06;;;;;;;0.90;0.90;;;;;;;25.34;43.47;97526.22;5079878;28;20242;-23
2023/08/08 07:54:34;;;;;;;0.97;0.97;;;;;;;25.33;42.94;97524.47;5088337;28;20191;-35
2023/08/08 07:57:00;;;;;;;0.90;0.90;;;;;;;25.33;43.65;97525.34;5087691;28;20451;-23
2023/08/08 07:59:27;;;;;;;1.00;1.00;;;;;;;25.34;43.53;97523.66;5086285;28;20626;-31
2023/08/08 08:01:54;;;;;;;1.00;1.00;;;;;;;25.34;43.37;97527.06;5090978;28;20312;-25
2023/08/08 08:04:20;;;;;;;0.90;0.90;;;;;;;25.33;43.39;97525.34;5083347;28;20196;-24
2023/08/08 08:06:47;;;;;;;0.90;0.90;;;;;;;25.34;43.48;97523.66;5089830;28;20219;-23
2023/08/08 08:09:13;;;;;;;0.97;0.97;;;;;;;25.35;43.25;97525.38;5093482;28;20579;-24
2023/08/08 08:11:40;;;;;;;1.00;1.00;;;;;;;25.35;43.12;97525.38;5088391;28;20253;-25
2023/08/08 08:14:07;;;;;;;1.60;1.03;;;;;;;25.34;43.70;97521.06;5089067;28;20278;-23
2023/08/08 08:16:34;;;;;;;1.03;1.03;;;;;;;25.35;43.50;97517.66;5083398;28;20212;-29
2023/08/08 08:19:01;;;;;;;2.23;0.90;;;;;;;25.35;43.32;97513.38;5094430;28;20234;-23
2023/08/08 08:21:27;;;;;;;1.00;1.00;;;;;;;25.36;43.24;97509.06;5093191;28;20286;-24
2023/08/08 08:23:54;;;;;;;0.93;0.93;;;;;;;25.35;43.28;97504.78;5093798;28;20199;-37
2023/08/08 08:26:21;;;;;;;0.90;0.90;;;;;;;25.35;43.30;97513.38;5083783;28;20230;-24
2023/08/08 08:28:48;;;;;;;0.70;0.70;;;;;;;25.36;43.23;97503.94;5083773;28;20732;-23
2023/08/08 08:31:15;;;;;;;0.80;0.80;;;;;;;25.35;43.63;97508.22;5090553;28;20195;-24
2023/08/08 08:33:42;;;;;;;0.77;0.77;;;;;;;25.35;43.32;97503.09;5092883;28;20598;-23
2023/08/08 08:36:08;;;;;;;0.80;0.80;;;;;;;25.35;43.00;97505.66;5088701;28;20410;-28
2023/08/08 08:38:37;;;;;;;0.90;0.90;;;;;;;25.35;43.42;97505.66;5083752;28;20278;-26
2023/08/08 08:41:04;;;;;;;0.80;0.80;;;;;;;25.35;43.33;97499.63;5093895;28;20211;-24
2023/08/08 08:43:30;;;;;;;0.80;0.80;;;;;;;25.32;43.14;97494.41;5092551;28;20199;-23
2023/08/08 08:45:57;;;;;;;0.80;0.80;;;;;;;25.36;43.40;97493.63;5073430;28;20215;-28
2023/08/08 08:48:23;;;;;;;0.87;0.87;;;;;;;25.31;43.57;97493.53;5061145;28;20310;-24
2023/08/08 08:50:50;;;;;;;0.80;0.80;;;;;;;25.35;43.32;97492.78;5066938;28;20580;-24
2023/08/08 08:53:17;;;;;;;1.00;1.00;;;;;;;25.36;43.13;97491.06;5088641;28;20586;-24
2023/08/08 08:55:44;;;;;;;0.73;0.73;;;;;;;25.36;43.36;97493.63;5092758;28;20269;-24
2023/08/08 08:58:13;;;;;;;0.80;0.80;;;;;;;25.36;43.72;97483.34;5073457;28;20303;-26
2023/08/08 09:00:39;;;;;;;1.00;1.00;;;;;;;25.32;42.95;97471.25;5093236;28;20534;-23
2023/08/08 09:03:06;;;;;;;0.80;0.80;;;;;;;25.35;43.44;97479.94;5059873;28;20222;-28
2023/08/08 09:05:33;;;;;;;0.90;0.90;;;;;;;25.34;43.64;97478.19;5080888;28;20691;-23
2023/08/08 09:07:59;;;;;;;0.80;0.80;;;;;;;25.25;43.30;97469.47;5083368;28;20285;-23
2023/08/08 09:10:26;;;;;;;0.80;0.80;;;;;;;25.35;42.98;97487.66;5092291;28;20206;-23
2023/08/08 09:12:53;;;;;;;0.93;0.93;;;;;;;25.35;43.61;97482.50;5080745;28;20207;-30
2023/08/08 09:15:19;;;;;;;0.90;0.90;;;;;;;25.37;43.43;97472.22;5088468;28;20572;-26
2023/08/08 09:17:46;;;;;;;0.90;0.90;;;;;;;25.36;43.07;97470.47;5090993;28;20224;-23
2023/08/08 09:20:15;;;;;;;0.80;0.80;;;;;;;25.36;43.15;97479.06;5079854;28;20555;-23
2023/08/08 09:22:42;;;;;;;0.80;0.80;;;;;;;25.35;43.67;97467.06;5087311;28;20261;-24
2023/08/08 09:25:09;;;;;;;0.90;0.90;;;;;;;25.36;42.88;97467.91;5081321;28;20246;-30
2023/08/08 09:27:35;;;;;;;1.13;0.80;;;;;;;25.35;43.03;97474.78;5083934;28;20303;-25
2023/08/08 09:30:03;;;;;;;0.90;0.90;;;;;;;25.35;43.61;97476.47;5087945;28;20200;-23
2023/08/08 09:32:32;;;;;;;0.90;0.90;;;;;;;25.35;43.62;97474.78;5090233;28;20195;-27
2023/08/08 09:34:59;;;;;;;0.80;0.80;;;;;;;25.36;42.98;97473.06;5090059;28;20216;-28
2023/08/08 09:37:27;;;;;;;1.10;1.00;;;;;;;25.36;43.08;97465.34;5084095;28;20220;-25
2023/08/08 09:39:58;;;;;;;0.80;0.80;;;;;;;25.36;43.47;97465.34;5090504;28;20198;-23
2023/08/08 09:42:25;;;;;;;0.90;0.90;;;;;;;25.36;43.24;97476.50;5076993;28;20281;-23
2023/08/08 09:44:52;;;;;;;0.80;0.80;;;;;;;25.36;43.23;97478.19;5088772;28;20204;-24
2023/08/08 09:47:21;;;;;;;1.80;1.10;;;;;;;25.37;43.60;97469.66;5086397;28;20231;-25
2023/08/08 09:49:48;;;;;;;1.17;1.00;;;;;;;25.31;43.63;97462.66;5084579;28;20665;-24
2023/08/08 09:52:16;;;;;;;1.20;1.00;;;;;;;25.36;43.20;97467.91;5098151;28;20192;-25
2023/08/08 09:54:42;;;;;;;1.20;1.10;;;;;;;25.35;43.76;97472.22;5079016;28;20196;-24
2023/08/08 09:57:09;;;;;;;1.13;0.90;;;;;;;25.37;43.32;97472.22;5088206;28;20215;-24
2023/08/08 09:59:36;;;;;;;2.80;1.10;;;;;;;25.31;43.47;97461.81;5087707;28;20665;-23
2023/08/08 10:02:02;;;;;;;1.93;1.10;;;;;;;25.38;43.71;97461.97;5082549;28;20653;-28
2023/08/08 10:04:30;;;;;;;3.60;1.40;;;;;;;25.28;43.18;97448.91;5091214;28;20191;-24
2023/08/08 10:06:56;;;;;;;1.70;1.10;;;;;;;25.40;43.32;97454.25;5089803;28;20227;-23
2023/08/08 10:09:23;;;;;;;5.33;1.57;;;;;;;25.21;43.50;97427.38;5086824;28;20199;-27
2023/08/08 10:11:49;;;;;;;3.33;1.40;;;;;;;25.40;42.87;97459.41;5096605;28;20200;-24
2023/08/08 10:14:16;;;;;;;3.07;1.30;;;;;;;25.38;43.39;97461.97;5081305;28;20207;-24
2023/08/08 10:16:44;;;;;;;4.93;1.47;;;;;;;25.40;43.28;97461.97;5088340;28;20659;-23
2023/08/08 10:19:12;;;;;;;2.17;1.30;;;;;;;25.40;43.03;97459.41;5081431;28;20196;-24
2023/08/08 10:21:41;;;;;;;2.80;1.43;;;;;;;25.36;42.97;97452.47;5084857;28;20212;-23
2023/08/08 10:24:09;;;;;;;2.77;1.30;;;;;;;25.39;43.32;97453.38;5084328;28;20200;-25
2023/08/08 10:26:59;;;;;;;2.67;1.40;;;;;;;25.39;42.92;97458.53;5083489;28;20302;-32
2023/08/08 10:29:26;;;;;;;2.80;1.47;;;;;;;25.39;43.50;97448.25;5074481;28;20218;-24
2023/08/08 10:31:57;;;;;;;2.40;1.37;;;;;;;25.39;43.14;97448.25;5090536;28;20271;-23
2023/08/08 10:34:43;;;;;;;2.10;1.30;;;;;;;25.39;43.18;97440.53;5080217;28;20203;-23
2023/08/08 10:37:12;;;;;;;2.00;1.27;;;;;;;25.39;43.38;97449.94;5080265;28;20277;-28
2023/08/08 10:39:51;;;;;;;3.37;1.17;;;;;;;25.40;42.90;97441.41;5091738;28;20615;-23
2023/08/08 10:42:18;;;;;;;2.43;1.30;;;;;;;25.38;42.88;97448.22;5084103;28;20212;-23
2023/08/08 10:45:00;;;;;;;1.40;1.00;;;;;;;25.38;43.20;97441.38;5078680;28;20200;-23
2023/08/08 10:47:34;;;;;;;7.10;1.40;;;;;;;25.39;43.48;97443.09;5084734;28;20227;-27
2023/08/08 10:50:06;;;;;;;1.50;1.27;;;;;;;25.38;43.00;97435.34;5081226;28;20204;-30
2023/08/08 10:52:59;;;;;;;2.43;1.30;;;;;;;25.38;43.22;97430.22;5071695;28;20192;-28
2023/08/08 10:55:26;;;;;;;2.03;1.20;;;;;;;25.40;43.02;97436.25;5080502;28;20196;-23
2023/08/08 10:58:04;;;;;;;1.70;1.10;;;;;;;25.38;43.31;97425.94;5090378;28;20222;-27
2023/08/08 11:00:31;;;;;;;3.93;1.20;;;;;;;25.39;43.07;97437.06;5087230;28;20192;-23
2023/08/08 11:02:58;;;;;;;1.80;1.20;;;;;;;25.40;43.36;97428.53;5090065;28;20219;-24
2023/08/08 11:05:26;;;;;;;2.40;1.50;;;;;;;25.38;43.21;97425.94;5076511;28;20199;-30
2023/08/08 11:07:53;;;;;;;4.07;1.33;;;;;;;25.39;43.53;97427.66;5085160;28;20219;-24
2023/08/08 11:10:22;;;;;;;4.50;1.63;;;;;;;25.38;43.51;97422.50;5087429;28;20204;-24
2023/08/08 11:13:03;;;;;;;4.00;1.47;;;;;;;25.39;42.87;97422.50;5079853;28;20191;-24
2023/08/08 11:15:32;;;;;;;2.03;1.30;;;;;;;25.39;43.37;97416.50;5087333;28;20195;-24
2023/08/08 11:17:59;;;;;;;4.30;1.30;;;;;;;25.38;43.38;97415.66;5079066;28;20226;-23
2023/08/08 11:20:31;;;;;;;1.90;1.17;;;;;;;25.40;42.93;97423.38;5079527;28;20626;-23
2023/08/08 11:22:58;;;;;;;3.13;1.30;;;;;;;25.39;43.30;97408.78;5089192;28;20634;-23
2023/08/08 11:25:29;;;;;;;1.70;1.30;;;;;;;25.39;43.41;97416.50;5086700;28;20208;-24
2023/08/08 11:27:56;;;;;;;1.43;1.20;;;;;;;25.39;42.74;97425.09;5073807;28;20215;-23
2023/08/08 11:30:23;;;;;;;1.40;1.30;;;;;;;25.36;42.99;97416.44;5087214;28;20196;-25
2023/08/08 11:32:50;;;;;;;2.00;1.20;;;;;;;25.39;43.18;97411.34;5086515;28;20204;-23
2023/08/08 11:35:23;;;;;;;1.50;1.20;;;;;;;25.36;43.26;97399.31;5075237;28;20228;-24